createdAt,value
2018-04-26T00:01:29.409Z,1.95
2018-04-26T00:03:57.805Z,1.55
2018-04-26T00:06:26.210Z,1.85
2018-04-26T00:08:54.587Z,1.50
2018-04-26T00:11:22.995Z,1.85
2018-04-26T00:13:51.360Z,1.92
2018-04-26T00:16:19.770Z,1.65
2018-04-26T00:18:48.915Z,2.55
2018-04-26T00:21:17.298Z,2.12
2018-04-26T00:23:45.676Z,3.75
2018-04-26T00:26:14.081Z,2.20
2018-04-26T00:28:42.459Z,2.10
2018-04-26T00:31:10.839Z,1.67
2018-04-26T00:33:39.206Z,2.83
2018-04-26T00:36:07.601Z,3.08
2018-04-26T00:38:35.980Z,2.75
2018-04-26T00:41:04.442Z,1.40
2018-04-26T00:43:32.818Z,2.80
2018-04-26T00:46:01.948Z,2.22
2018-04-26T00:48:30.313Z,2.08
2018-04-26T00:50:58.763Z,1.95
2018-04-26T00:53:27.243Z,1.90
2018-04-26T00:55:55.658Z,2.50
2018-04-26T00:58:24.801Z,2.05
2018-04-26T01:00:53.182Z,1.90
2018-04-26T01:03:22.346Z,2.65
2018-04-26T01:05:50.714Z,2.42
2018-04-26T01:08:19.862Z,1.90
2018-04-26T01:10:48.234Z,2.25
2018-04-26T01:13:16.627Z,2.10
2018-04-26T01:15:45.015Z,2.55
2018-04-26T01:18:14.173Z,2.72
2018-04-26T01:20:43.320Z,1.90
2018-04-26T01:23:11.716Z,3.00
2018-04-26T01:25:40.117Z,2.55
2018-04-26T01:28:09.319Z,2.45
2018-04-26T01:30:37.738Z,2.87
2018-04-26T01:33:06.113Z,2.40
2018-04-26T01:35:34.610Z,3.97
2018-04-26T01:38:02.991Z,4.75
2018-04-26T01:40:31.367Z,3.00
2018-04-26T01:42:59.774Z,3.55
2018-04-26T01:45:28.160Z,3.03
2018-04-26T01:47:57.414Z,2.70
2018-04-26T01:50:26.610Z,2.95
2018-04-26T01:52:54.966Z,3.03
2018-04-26T01:55:23.354Z,3.45
2018-04-26T01:57:51.737Z,2.47
2018-04-26T02:00:20.859Z,2.37
2018-04-26T02:02:50.014Z,2.97
2018-04-26T02:05:18.389Z,3.58
2018-04-26T02:07:46.768Z,2.55
2018-04-26T02:10:15.144Z,2.42
2018-04-26T02:12:43.526Z,2.62
2018-04-26T02:15:11.982Z,2.95
2018-04-26T02:17:41.249Z,2.15
2018-04-26T02:20:09.717Z,2.75
2018-04-26T02:22:38.089Z,2.90
2018-04-26T02:25:06.496Z,3.58
2018-04-26T02:27:35.617Z,1.85
2018-04-26T02:30:03.981Z,2.37
2018-04-26T02:32:32.362Z,2.75
2018-04-26T02:35:00.743Z,2.37
2018-04-26T02:37:29.122Z,2.70
2018-04-26T02:39:57.581Z,2.30
2018-04-26T02:42:25.969Z,2.50
2018-04-26T02:44:54.349Z,2.70
2018-04-26T02:47:22.811Z,2.00
2018-04-26T02:49:51.194Z,3.10
2018-04-26T02:52:19.657Z,2.40
2018-04-26T02:54:48.808Z,2.90
2018-04-26T02:57:17.294Z,3.97
2018-04-26T02:59:45.690Z,2.15
2018-04-26T03:02:14.073Z,2.95
2018-04-26T03:04:42.453Z,4.25
2018-04-26T03:07:10.863Z,2.33
2018-04-26T03:09:39.260Z,2.58
2018-04-26T03:12:08.486Z,3.20
2018-04-26T03:14:36.885Z,2.65
2018-04-26T03:17:05.289Z,3.10
2018-04-26T03:19:33.707Z,3.05
2018-04-26T03:22:02.110Z,2.75
2018-04-26T03:24:31.261Z,3.00
2018-04-26T03:26:59.645Z,2.45
2018-04-26T03:29:30.342Z,4.12
2018-04-26T03:31:58.784Z,2.53
2018-04-26T03:34:27.165Z,3.17
2018-04-26T03:36:55.533Z,2.80
2018-04-26T03:39:24.015Z,2.60
2018-04-26T03:41:52.382Z,3.60
2018-04-26T03:44:20.760Z,3.45
2018-04-26T03:46:49.154Z,3.25
2018-04-26T03:49:18.317Z,3.15
2018-04-26T03:51:46.704Z,2.60
2018-04-26T03:54:15.102Z,3.15
2018-04-26T03:56:43.480Z,3.08
2018-04-26T03:59:11.849Z,3.72
2018-04-26T04:01:58.562Z,3.25
2018-04-26T04:04:44.750Z,3.12
2018-04-26T04:07:13.166Z,2.85
2018-04-26T04:09:42.341Z,3.15
2018-04-26T04:12:10.737Z,3.17
2018-04-26T04:14:39.110Z,3.50
2018-04-26T04:17:07.489Z,3.60
2018-04-26T04:19:35.886Z,3.90
2018-04-26T04:22:04.274Z,2.95
2018-04-26T04:24:32.650Z,3.67
2018-04-26T04:27:01.039Z,3.83
2018-04-26T04:29:29.426Z,3.60
2018-04-26T04:31:57.838Z,3.20
2018-04-26T04:34:26.182Z,3.20
2018-04-26T04:36:54.597Z,2.92
2018-04-26T04:39:23.111Z,3.28
2018-04-26T04:41:52.282Z,2.40
2018-04-26T04:44:20.664Z,2.53
2018-04-26T04:46:49.062Z,1.98
2018-04-26T04:49:17.460Z,2.20
2018-04-26T04:51:46.604Z,2.42
2018-04-26T04:54:15.074Z,2.25
2018-04-26T04:56:43.445Z,2.30
2018-04-26T04:59:11.825Z,2.55
2018-04-26T05:01:40.194Z,1.90
2018-04-26T05:06:44.737Z,2.28
2018-04-26T05:09:13.902Z,3.33
2018-04-26T05:11:42.294Z,2.53
2018-04-26T05:14:10.840Z,3.28
2018-04-26T05:16:39.312Z,3.05
2018-04-26T05:19:07.716Z,2.95
2018-04-26T05:21:36.140Z,2.45
2018-04-26T05:24:04.506Z,2.47
2018-04-26T05:26:32.997Z,2.50
2018-04-26T05:29:01.375Z,2.78
2018-04-26T05:31:29.756Z,3.47
2018-04-26T05:33:58.159Z,2.95
2018-04-26T05:36:26.545Z,3.90
2018-04-26T05:38:55.707Z,3.45
2018-04-26T05:41:24.101Z,4.35
2018-04-26T05:43:52.543Z,6.68
2018-04-26T05:46:20.979Z,3.75
2018-04-26T05:48:49.379Z,3.03
2018-04-26T05:51:17.811Z,4.50
2018-04-26T05:53:46.202Z,3.45
2018-04-26T05:56:14.622Z,3.58
2018-04-26T05:58:43.007Z,3.10
2018-04-26T06:01:11.457Z,3.17
2018-04-26T06:03:39.953Z,3.10
2018-04-26T06:06:08.269Z,3.95
2018-04-26T06:08:37.437Z,3.93
2018-04-26T06:11:05.810Z,4.10
2018-04-26T06:13:34.227Z,4.50
2018-04-26T06:16:02.626Z,5.43
2018-04-26T06:18:31.787Z,3.60
2018-04-26T06:21:00.202Z,4.77
2018-04-26T06:23:28.588Z,3.90
2018-04-26T06:25:57.038Z,5.70
2018-04-26T06:28:25.426Z,4.12
2018-04-26T06:30:53.843Z,4.40
2018-04-26T06:33:23.006Z,4.77
2018-04-26T06:35:51.401Z,4.20
2018-04-26T06:38:19.786Z,4.72
2018-04-26T06:40:48.191Z,4.83
2018-04-26T06:43:16.557Z,4.57
2018-04-26T06:45:44.963Z,4.60
2018-04-26T06:48:14.158Z,4.20
2018-04-26T06:50:42.549Z,3.47
2018-04-26T06:53:11.757Z,4.12
2018-04-26T06:55:40.148Z,4.03
2018-04-26T06:58:08.593Z,4.70
2018-04-26T07:00:37.076Z,4.60
2018-04-26T07:03:05.474Z,4.20
2018-04-26T07:05:33.933Z,4.37
2018-04-26T07:08:02.317Z,4.43
2018-04-26T07:10:30.703Z,5.65
2018-04-26T07:12:59.091Z,4.90
2018-04-26T07:15:27.532Z,6.35
2018-04-26T07:17:56.154Z,5.60
2018-04-26T07:20:24.622Z,4.32
2018-04-26T07:22:53.022Z,4.70
2018-04-26T07:25:21.449Z,5.07
2018-04-26T07:27:50.641Z,5.40
2018-04-26T07:30:19.025Z,5.37
2018-04-26T07:32:48.210Z,4.07
2018-04-26T07:35:16.606Z,4.93
2018-04-26T07:37:45.152Z,4.87
2018-04-26T07:40:13.547Z,6.10
2018-04-26T07:42:41.979Z,5.07
2018-04-26T07:45:10.363Z,4.23
2018-04-26T07:47:38.830Z,5.10
2018-04-26T07:50:07.295Z,5.53
2018-04-26T07:52:35.685Z,3.80
2018-04-26T07:55:04.091Z,5.10
2018-04-26T07:57:33.237Z,4.30
2018-04-26T08:00:01.697Z,4.40
2018-04-26T08:02:30.089Z,4.00
2018-04-26T08:04:58.488Z,5.10
2018-04-26T08:07:26.894Z,4.27
2018-04-26T08:09:56.098Z,4.30
2018-04-26T08:12:24.501Z,4.57
2018-04-26T08:14:53.691Z,3.67
2018-04-26T08:17:22.098Z,4.03
2018-04-26T08:19:51.272Z,4.13
2018-04-26T08:22:19.654Z,3.83
2018-04-26T08:24:48.910Z,3.60
2018-04-26T08:27:17.289Z,4.03
2018-04-26T08:29:45.672Z,3.07
2018-04-26T08:32:14.054Z,3.90
2018-04-26T08:34:42.454Z,3.40
2018-04-26T08:37:10.846Z,4.10
2018-04-26T08:39:39.293Z,3.73
2018-04-26T08:42:08.458Z,4.20
2018-04-26T08:44:36.857Z,4.13
2018-04-26T08:47:05.261Z,4.77
2018-04-26T08:49:33.695Z,4.30
2018-04-26T08:52:02.118Z,5.50
2018-04-26T08:54:30.522Z,4.33
2018-04-26T08:56:58.909Z,3.70
2018-04-26T08:59:27.298Z,3.93
2018-04-26T09:01:55.701Z,4.10
2018-04-26T09:04:24.139Z,3.40
2018-04-26T09:06:53.306Z,3.73
2018-04-26T09:09:21.692Z,3.30
2018-04-26T09:11:50.074Z,2.67
2018-04-26T09:14:18.450Z,3.13
2018-04-26T09:16:46.837Z,3.37
2018-04-26T09:19:15.238Z,3.93
2018-04-26T09:21:43.637Z,3.90
2018-04-26T09:24:12.792Z,3.33
2018-04-26T09:26:41.214Z,3.33
2018-04-26T09:29:10.373Z,3.27
2018-04-26T09:31:38.776Z,3.80
2018-04-26T09:34:07.178Z,3.83
2018-04-26T09:36:36.373Z,3.33
2018-04-26T09:39:04.768Z,3.50
2018-04-26T09:41:33.941Z,3.27
2018-04-26T09:46:32.482Z,3.40
2018-04-26T09:49:01.645Z,3.63
2018-04-26T09:51:30.033Z,3.10
2018-04-26T09:53:58.429Z,3.20
2018-04-26T09:56:26.975Z,3.50
2018-04-26T09:58:55.369Z,3.10
2018-04-26T10:01:28.639Z,3.67
2018-04-26T10:04:02.552Z,3.10
2018-04-26T10:06:31.810Z,3.00
2018-04-26T10:09:00.971Z,2.63
2018-04-26T10:11:29.531Z,3.20
2018-04-26T10:13:57.925Z,2.60
2018-04-26T10:16:26.318Z,2.60
2018-04-26T10:18:55.462Z,3.23
2018-04-26T10:21:24.630Z,2.87
2018-04-26T10:23:53.018Z,3.00
2018-04-26T10:26:21.425Z,2.10
2018-04-26T10:28:50.598Z,4.37
2018-04-26T10:31:19.053Z,2.80
2018-04-26T10:33:47.449Z,3.03
2018-04-26T10:36:15.863Z,2.80
2018-04-26T10:38:44.276Z,2.57
2018-04-26T10:41:13.429Z,3.60
2018-04-26T10:43:41.810Z,3.00
2018-04-26T10:46:10.208Z,2.37
2018-04-26T10:48:38.608Z,2.93
2018-04-26T10:51:07.759Z,3.40
2018-04-26T10:53:36.175Z,3.37
2018-04-26T10:56:04.566Z,2.90
2018-04-26T10:58:32.989Z,2.93
2018-04-26T11:01:01.359Z,2.90
2018-04-26T11:03:30.509Z,3.17
2018-04-26T11:05:58.899Z,2.30
2018-04-26T11:08:27.284Z,3.67
2018-04-26T11:10:55.695Z,3.03
2018-04-26T11:13:24.846Z,2.63
2018-04-26T11:15:53.394Z,2.50
2018-04-26T11:18:22.575Z,2.90
2018-04-26T11:20:50.970Z,2.60
2018-04-26T11:23:19.390Z,3.20
2018-04-26T11:25:47.800Z,5.67
2018-04-26T11:28:16.972Z,2.97
2018-04-26T11:30:45.391Z,3.27
2018-04-26T11:33:13.761Z,2.70
2018-04-26T11:35:42.154Z,2.30
2018-04-26T11:38:10.537Z,3.77
2018-04-26T11:40:38.935Z,1.90
2018-04-26T11:43:08.130Z,2.20
2018-04-26T11:45:36.532Z,2.67
2018-04-26T11:48:05.014Z,2.40
2018-04-26T11:50:33.390Z,3.10
2018-04-26T11:53:01.796Z,1.90
2018-04-26T11:55:31.004Z,2.33
2018-04-26T11:58:00.156Z,2.57
2018-04-26T12:00:28.534Z,2.73
2018-04-26T12:02:57.015Z,2.70
2018-04-26T12:05:25.398Z,2.80
2018-04-26T12:07:53.789Z,3.50
2018-04-26T12:10:22.194Z,3.57
2018-04-26T12:12:50.583Z,3.67
2018-04-26T12:15:19.021Z,2.30
2018-04-26T12:17:48.185Z,2.83
2018-04-26T12:20:17.366Z,2.47
2018-04-26T12:22:45.761Z,2.80
2018-04-26T12:25:14.205Z,2.50
2018-04-26T12:27:42.602Z,3.10
2018-04-26T12:30:11.061Z,3.03
2018-04-26T12:32:39.440Z,2.23
2018-04-26T12:35:07.995Z,3.10
2018-04-26T12:37:36.323Z,2.20
2018-04-26T12:40:04.709Z,2.10
2018-04-26T12:42:33.097Z,2.63
2018-04-26T12:45:01.475Z,2.57
2018-04-26T12:47:29.889Z,2.97
2018-04-26T12:49:58.326Z,2.53
2018-04-26T12:52:26.743Z,2.30
2018-04-26T12:54:55.109Z,3.17
2018-04-26T12:57:23.599Z,2.10
2018-04-26T12:59:51.979Z,2.40
2018-04-26T13:02:20.349Z,2.37
2018-04-26T13:04:48.759Z,2.50
2018-04-26T13:07:17.158Z,3.17
2018-04-26T13:09:45.591Z,2.60
2018-04-26T13:12:13.982Z,3.53
2018-04-26T13:14:42.364Z,3.00
2018-04-26T13:17:10.801Z,2.03
2018-04-26T13:19:39.207Z,3.03
2018-04-26T13:22:08.352Z,3.17
2018-04-26T13:24:36.741Z,2.40
2018-04-26T13:27:05.229Z,3.47
2018-04-26T13:29:33.739Z,2.30
2018-04-26T13:32:02.127Z,2.27
2018-04-26T13:34:30.513Z,2.73
2018-04-26T13:36:59.681Z,3.83
2018-04-26T13:39:28.085Z,2.90
2018-04-26T13:41:56.488Z,2.40
2018-04-26T13:44:25.711Z,2.40
2018-04-26T13:46:54.142Z,2.67
2018-04-26T13:49:22.505Z,2.30
2018-04-26T13:51:50.911Z,3.03
2018-04-26T13:54:19.277Z,2.60
2018-04-26T13:56:47.654Z,2.27
2018-04-26T13:59:16.017Z,2.53
2018-04-26T14:01:44.394Z,2.80
2018-04-26T14:04:12.783Z,1.90
2018-04-26T14:06:41.210Z,2.33
2018-04-26T14:09:09.587Z,2.33
2018-04-26T14:11:37.978Z,3.13
2018-04-26T14:14:06.388Z,2.57
2018-04-26T14:16:35.530Z,2.70
2018-04-26T14:19:03.918Z,1.83
2018-04-26T14:21:32.312Z,2.07
2018-04-26T14:24:00.694Z,2.50
2018-04-26T14:26:29.102Z,2.33
2018-04-26T14:28:57.469Z,2.00
2018-04-26T14:31:25.876Z,1.77
2018-04-26T14:33:54.258Z,2.03
2018-04-26T14:36:22.678Z,1.77
2018-04-26T14:38:51.121Z,2.23
2018-04-26T14:41:19.648Z,1.60
2018-04-26T14:43:48.049Z,2.20
2018-04-26T14:46:16.428Z,1.93
2018-04-26T14:48:44.842Z,3.30
2018-04-26T14:51:13.238Z,1.90
2018-04-26T14:53:41.629Z,1.57
2018-04-26T14:56:10.020Z,2.03
2018-04-26T14:58:39.170Z,1.70
2018-04-26T15:01:07.553Z,2.20
2018-04-26T15:03:36.023Z,1.60
2018-04-26T15:06:04.448Z,2.37
2018-04-26T15:08:32.847Z,2.10
2018-04-26T15:11:01.279Z,2.20
2018-04-26T15:13:29.755Z,2.70
2018-04-26T15:15:58.168Z,2.50
2018-04-26T15:18:26.543Z,2.63
2018-04-26T15:20:54.933Z,3.67
2018-04-26T15:23:23.334Z,3.40
2018-04-26T15:25:51.767Z,3.40
2018-04-26T15:28:20.155Z,3.33
2018-04-26T15:30:48.565Z,2.80
2018-04-26T15:33:16.963Z,2.50
2018-04-26T15:35:45.341Z,2.20
2018-04-26T15:38:13.779Z,2.70
2018-04-26T15:40:42.187Z,2.87
2018-04-26T15:43:10.607Z,3.37
2018-04-26T15:45:39.003Z,2.13
2018-04-26T15:48:07.401Z,2.60
2018-04-26T15:53:49.572Z,3.17
2018-04-26T15:56:59.035Z,3.93
2018-04-26T15:59:44.961Z,2.73
2018-04-26T16:02:33.261Z,1.90
2018-04-26T16:05:24.882Z,2.20
2018-04-26T16:08:16.598Z,2.00
2018-04-26T16:11:08.543Z,2.07
2018-04-26T16:14:00.390Z,3.23
2018-04-26T16:16:49.189Z,2.37
2018-04-26T16:19:40.924Z,2.20
2018-04-26T16:26:04.209Z,2.10
2018-04-26T16:28:56.583Z,2.43
2018-04-26T16:31:48.349Z,1.53
2018-04-26T16:34:50.178Z,2.03
2018-04-26T16:37:42.029Z,2.73
2018-04-26T16:40:10.438Z,1.87
2018-04-26T16:42:38.838Z,2.30
2018-04-26T16:45:07.257Z,2.50
2018-04-26T16:47:35.673Z,6.30
2018-04-26T16:50:04.084Z,3.30
2018-04-26T16:52:33.257Z,4.80
2018-04-26T16:55:01.683Z,5.23
2018-04-26T16:57:30.091Z,2.70
2018-04-26T16:59:59.331Z,2.20
2018-04-26T17:02:27.693Z,2.20
2018-04-26T17:04:56.925Z,2.57
2018-04-26T17:07:25.251Z,3.00
2018-04-26T17:09:53.818Z,3.33
2018-04-26T17:12:22.215Z,3.07
2018-04-26T17:14:50.627Z,2.70
2018-04-26T17:17:19.782Z,2.07
2018-04-26T17:19:49.008Z,2.67
2018-04-26T17:22:17.425Z,3.10
2018-04-26T17:24:45.818Z,4.63
2018-04-26T17:27:14.318Z,2.20
2018-04-26T17:29:42.710Z,2.53
2018-04-26T17:32:11.156Z,3.00
2018-04-26T17:34:40.301Z,3.60
2018-04-26T17:37:09.475Z,2.33
2018-04-26T17:39:37.881Z,3.00
2018-04-26T17:42:06.289Z,2.67
2018-04-26T17:44:34.727Z,2.47
2018-04-26T17:47:03.143Z,2.87
2018-04-26T17:49:31.543Z,2.80
2018-04-26T17:51:59.979Z,3.83
2018-04-26T17:54:28.398Z,2.20
2018-04-26T17:56:57.580Z,2.40
2018-04-26T17:59:25.976Z,2.00
2018-04-26T18:01:54.346Z,2.20
2018-04-26T18:04:22.766Z,2.33
2018-04-26T18:06:51.197Z,2.87
2018-04-26T18:09:19.578Z,1.63
2018-04-26T18:11:47.957Z,2.70
2018-04-26T18:14:16.372Z,2.50
2018-04-26T18:16:44.763Z,2.57
2018-04-26T18:19:13.158Z,3.03
2018-04-26T18:21:41.662Z,2.30
2018-04-26T18:24:10.854Z,2.40
2018-04-26T18:26:39.280Z,2.63
2018-04-26T18:29:08.561Z,9.48
2018-04-26T18:31:36.898Z,8.30
2018-04-26T18:34:05.323Z,3.50
2018-04-26T18:36:34.517Z,3.12
2018-04-26T18:39:03.665Z,3.25
2018-04-26T18:41:32.055Z,3.23
2018-04-26T18:44:00.443Z,2.83
2018-04-26T18:46:28.857Z,3.20
2018-04-26T18:48:57.280Z,3.70
2018-04-26T18:51:25.722Z,3.03
2018-04-26T18:53:54.061Z,3.37
2018-04-26T18:56:22.453Z,3.47
2018-04-26T18:58:50.841Z,2.92
2018-04-26T19:01:19.229Z,3.33
2018-04-26T19:03:47.686Z,3.25
2018-04-26T19:06:16.082Z,5.72
2018-04-26T19:08:45.323Z,4.80
2018-04-26T19:11:13.672Z,4.00
2018-04-26T19:13:42.074Z,3.80
2018-04-26T19:16:11.282Z,4.07
2018-04-26T19:18:39.724Z,3.83
2018-04-26T19:21:08.087Z,3.60
2018-04-26T19:23:37.239Z,3.90
2018-04-26T19:26:05.634Z,5.22
2018-04-26T19:28:34.036Z,4.75
2018-04-26T19:31:03.172Z,4.70
2018-04-26T19:33:31.581Z,4.45
2018-04-26T19:35:59.949Z,4.47
2018-04-26T19:38:28.410Z,4.50
2018-04-26T19:40:56.737Z,4.35
2018-04-26T19:43:25.169Z,4.45
2018-04-26T19:45:54.307Z,4.28
2018-04-26T19:48:22.698Z,4.15
2018-04-26T19:50:51.163Z,4.65
2018-04-26T19:53:19.561Z,7.75
2018-04-26T19:55:48.007Z,4.55
2018-04-26T19:58:16.411Z,5.10
2018-04-26T20:00:44.810Z,5.03
2018-04-26T20:03:13.281Z,5.32
2018-04-26T20:05:41.703Z,4.85
2018-04-26T20:08:10.883Z,4.90
2018-04-26T20:10:39.278Z,5.00
2018-04-26T20:13:07.662Z,4.62
2018-04-26T20:15:36.035Z,4.93
2018-04-26T20:18:04.436Z,4.50
2018-04-26T20:20:32.839Z,5.85
2018-04-26T20:23:02.000Z,5.93
2018-04-26T20:25:30.383Z,5.68
2018-04-26T20:27:58.781Z,6.43
2018-04-26T20:30:27.221Z,4.93
2018-04-26T20:32:56.394Z,4.75
2018-04-26T20:35:24.793Z,5.07
2018-04-26T20:37:53.192Z,4.75
2018-04-26T20:40:21.646Z,4.70
2018-04-26T20:42:50.030Z,5.10
2018-04-26T20:45:19.200Z,4.68
2018-04-26T20:47:48.366Z,4.57
2018-04-26T20:50:16.843Z,4.65
2018-04-26T20:52:45.351Z,4.05
2018-04-26T20:55:13.673Z,4.32
2018-04-26T20:57:42.115Z,4.20
2018-04-26T21:00:10.507Z,3.95
2018-04-26T21:02:38.927Z,4.18
2018-04-26T21:05:07.292Z,4.70
2018-04-26T21:07:37.230Z,5.72
2018-04-26T21:10:05.617Z,4.62
2018-04-26T21:12:34.794Z,5.18
2018-04-26T21:15:03.183Z,4.47
2018-04-26T21:17:31.579Z,4.87
2018-04-26T21:19:59.994Z,4.80
2018-04-26T21:22:28.376Z,4.70
2018-04-26T21:24:56.772Z,4.32
2018-04-26T21:27:25.147Z,3.85
2018-04-26T21:29:53.544Z,4.90
2018-04-26T21:32:21.910Z,4.72
2018-04-26T21:34:50.285Z,5.25
2018-04-26T21:37:18.662Z,5.10
2018-04-26T21:39:47.825Z,5.53
2018-04-26T21:42:16.197Z,5.37
2018-04-26T21:44:44.597Z,4.82
2018-04-26T21:47:12.966Z,3.75
2018-04-26T21:49:40.701Z,3.25
2018-04-26T21:52:14.416Z,3.92
2018-04-26T21:54:48.218Z,3.22
2018-04-26T21:57:21.977Z,3.83
2018-04-26T21:59:55.794Z,2.85
2018-04-26T22:02:24.254Z,2.70
2018-04-26T22:07:59.531Z,3.70
2018-04-26T22:10:28.668Z,4.32
2018-04-26T22:12:57.089Z,3.12
2018-04-26T22:15:25.477Z,3.67
2018-04-26T22:17:53.879Z,3.35
2018-04-26T22:20:23.027Z,3.85
2018-04-26T22:22:51.410Z,3.30
2018-04-26T22:25:19.778Z,3.90
2018-04-26T22:27:48.164Z,4.25
2018-04-26T22:30:16.542Z,3.28
2018-04-26T22:32:45.027Z,3.92
2018-04-26T22:35:13.419Z,3.70
2018-04-26T22:37:41.841Z,3.42
2018-04-26T22:40:10.225Z,2.92
2018-04-26T22:42:38.624Z,3.60
2018-04-26T22:45:07.761Z,3.22
2018-04-26T22:47:36.138Z,3.17
2018-04-26T22:50:04.522Z,2.90
2018-04-26T22:52:32.906Z,2.85
2018-04-26T22:55:01.628Z,3.15
2018-04-26T22:57:29.994Z,2.35
2018-04-26T22:59:58.366Z,3.12
2018-04-26T23:02:26.751Z,2.83
2018-04-26T23:04:55.134Z,3.20
2018-04-26T23:07:24.289Z,3.03
2018-04-26T23:09:53.451Z,4.00
2018-04-26T23:12:21.863Z,2.75
2018-04-26T23:14:51.078Z,4.10
2018-04-26T23:17:20.239Z,3.12
2018-04-26T23:19:48.617Z,3.45
2018-04-26T23:22:16.998Z,2.50
2018-04-26T23:24:45.378Z,3.03
2018-04-26T23:27:13.769Z,3.20
2018-04-26T23:29:42.149Z,3.00
2018-04-26T23:32:10.526Z,3.20
2018-04-26T23:34:38.987Z,3.20
2018-04-26T23:37:07.365Z,3.10
2018-04-26T23:39:35.828Z,2.85
2018-04-26T23:42:05.016Z,2.30
2018-04-26T23:44:34.162Z,3.15
2018-04-26T23:47:02.543Z,2.95
2018-04-26T23:49:30.924Z,3.15
2018-04-26T23:51:59.317Z,3.03
2018-04-26T23:54:27.746Z,3.65
2018-04-26T23:56:56.159Z,4.15
2018-04-26T23:59:25.311Z,2.90
